Current Conditions
Overcast
Conditions



Pressure
29.93 (inHG) - 1013.52 (mb)
Visibility

10.0 (mimiles) - 16.1 (km)
   Temperature
66  °F
19°C
57  °F
Dewpoint
73  %
 Humidity
   Wind Speed
5  mph
4  kts
8  km/h
2.2  m/s
   Wind Direction
 210°
South South
West
   Airport Data
0S9
Location Jefferson County International 5 mi (8.05 km)
Metar :K0S9 180015Z AUTO 21004KT 10SM OVC060 19/14 A2993 RMK AO2
Sat 17th August 17:15 pm
   Raw Metar Info
Raw METAR is the most common format in the world for the transmission of observational weather data. It is highly standardized through the International Civil Aviation Organization (ICAO), which allows it to be understood throughout most of the world.
   API Info
Data Provided by
https://www.checkwx.com/weather/0S9
   © Info
CSS/SVG/PHP scripts were developed by weather34.com for use in the weather34 template © 2015-2019

Guide Info provided by Metar-Wikipedia